createdAt,value
2018-06-22T15:57:50.890Z,7.70
2018-06-22T16:00:18.467Z,8.20
2018-06-22T16:02:51.203Z,13.80
2018-06-22T16:05:18.815Z,8.30
2018-06-22T16:07:46.746Z,8.07
2018-06-22T16:10:14.358Z,9.17
2018-06-22T16:12:42.251Z,7.70
2018-06-22T16:15:16.782Z,6.87
2018-06-22T16:17:49.723Z,6.97
2018-06-22T16:20:22.515Z,8.57
2018-06-22T16:22:55.743Z,7.87
2018-06-22T16:25:28.613Z,8.57
2018-06-22T16:27:58.609Z,8.03
2018-06-22T16:30:27.078Z,9.00
2018-06-22T16:32:54.692Z,8.43
2018-06-22T16:35:22.753Z,7.33
2018-06-22T16:37:50.615Z,10.10
2018-06-22T16:40:18.234Z,7.43
2018-06-22T16:42:45.987Z,10.47
2018-06-22T16:45:13.598Z,7.73
2018-06-22T16:47:41.155Z,8.40
2018-06-22T16:50:09.855Z,8.30
2018-06-22T16:52:38.021Z,8.77
2018-06-22T16:55:05.589Z,10.07
2018-06-22T16:57:33.414Z,9.47
2018-06-22T17:00:00.979Z,9.57
2018-06-22T17:02:28.764Z,11.57
2018-06-22T17:04:56.542Z,12.50
2018-06-22T17:07:29.403Z,10.10
2018-06-22T17:10:02.405Z,9.63
2018-06-22T17:12:35.140Z,9.83
2018-06-22T17:15:07.941Z,9.70
2018-06-22T17:17:40.735Z,8.73
2018-06-22T17:20:08.292Z,10.50
2018-06-22T17:22:36.029Z,12.53
2018-06-22T17:25:03.596Z,10.17
2018-06-22T17:27:31.199Z,13.23
2018-06-22T17:29:58.809Z,13.70
2018-06-22T17:32:26.422Z,10.87
2018-06-22T17:34:54.001Z,10.73
2018-06-22T17:37:21.713Z,10.87
2018-06-22T17:39:49.339Z,12.07
2018-06-22T17:42:16.936Z,12.73
2018-06-22T17:44:44.641Z,8.43
2018-06-22T17:47:12.250Z,10.07
2018-06-22T17:49:40.445Z,9.23
2018-06-22T17:52:08.062Z,13.17
2018-06-22T17:54:35.601Z,8.03
2018-06-22T17:57:03.158Z,8.87
2018-06-22T17:59:35.957Z,14.20
2018-06-22T18:02:08.848Z,8.00
2018-06-22T18:04:39.544Z,8.10
2018-06-22T18:07:12.476Z,8.70
2018-06-22T18:09:45.521Z,9.73
2018-06-22T18:12:18.334Z,9.30
2018-06-22T18:14:46.325Z,9.23
2018-06-22T18:17:13.923Z,10.40
2018-06-22T18:19:41.542Z,12.77
2018-06-22T18:22:09.138Z,10.33
2018-06-22T18:24:36.940Z,11.10
2018-06-22T18:27:04.558Z,12.60
2018-06-22T18:29:32.171Z,15.07
2018-06-22T18:31:59.785Z,14.37
2018-06-22T18:34:27.372Z,16.43
2018-06-22T18:36:55.116Z,15.33
2018-06-22T18:39:22.688Z,12.37
2018-06-22T18:41:50.251Z,16.00
2018-06-22T18:44:18.247Z,16.43
2018-06-22T18:46:46.277Z,17.13
2018-06-22T18:49:13.959Z,15.43
2018-06-22T18:51:41.589Z,14.43
2018-06-22T18:54:14.535Z,13.20
2018-06-22T18:56:47.529Z,12.30
2018-06-22T18:59:20.383Z,14.97
2018-06-22T19:01:53.548Z,13.00
2018-06-22T19:04:21.099Z,11.83
2018-06-22T19:06:48.677Z,12.43
2018-06-22T19:09:16.271Z,21.17
2018-06-22T19:11:43.885Z,22.83
2018-06-22T19:14:11.429Z,25.73
2018-06-22T19:16:40.265Z,15.67
2018-06-22T19:19:07.877Z,15.97
2018-06-22T19:21:35.442Z,16.87
2018-06-22T19:24:03.194Z,15.67
2018-06-22T19:26:30.766Z,16.90
2018-06-22T19:28:58.361Z,19.47
2018-06-22T19:31:26.180Z,17.27
2018-06-22T19:33:53.870Z,18.27
2018-06-22T19:36:21.428Z,18.40
2018-06-22T19:38:49.202Z,18.13
2018-06-22T19:41:16.970Z,16.43
2018-06-22T19:43:49.757Z,22.90
2018-06-22T19:46:22.712Z,17.83
2018-06-22T19:48:55.601Z,14.43
2018-06-22T19:51:28.437Z,15.83
2018-06-22T19:54:00.648Z,15.83
2018-06-22T19:56:28.230Z,16.70
2018-06-22T19:58:55.807Z,17.17
2018-06-22T20:01:23.406Z,16.70
2018-06-22T20:03:50.964Z,18.40
2018-06-22T20:06:18.699Z,15.87
2018-06-22T20:08:46.345Z,22.87
2018-06-22T20:11:13.899Z,19.63
2018-06-22T20:13:42.332Z,30.90
2018-06-22T20:16:09.894Z,17.83
2018-06-22T20:18:37.474Z,18.33
2018-06-22T20:21:06.036Z,19.10
2018-06-22T20:23:33.595Z,18.90
2018-06-22T20:26:01.196Z,19.20
2018-06-22T20:28:28.954Z,17.03
2018-06-22T20:30:56.527Z,19.00
2018-06-22T20:33:24.104Z,21.03
2018-06-22T20:35:57.289Z,20.70
2018-06-22T20:38:30.048Z,20.73
